Time;durP1;ratioP1;P1;durP2;ratioP2;P2;SDS_P1;SDS_P2;PMS_P1;PMS_P2;Temp;Humidity;BMP_temperature;BMP_pressure;BME280_temperature;BME280_humidity;BME280_pressure;Samples;Min_cycle;Max_cycle;Signal;HPM_P1;HPM_P2
2023/04/19 00:01:11;;;;;;;12.83;9.37;;;11.10;77.40;;;;;;5072982;28;20970;-63
2023/04/19 00:03:42;;;;;;;12.67;8.20;;;11.10;77.50;;;;;;5084486;28;20511;-64
2023/04/19 00:06:23;;;;;;;11.93;7.97;;;11.10;77.50;;;;;;5075153;28;20442;-64
2023/04/19 00:09:06;;;;;;;12.40;7.57;;;11.10;77.60;;;;;;5080159;28;20459;-63
2023/04/19 00:11:47;;;;;;;13.00;8.27;;;11.00;77.60;;;;;;5082848;28;20462;-64
2023/04/19 00:14:37;;;;;;;15.33;9.07;;;11.10;77.60;;;;;;5080684;28;20848;-63
2023/04/19 00:17:10;;;;;;;12.63;7.97;;;11.10;77.70;;;;;;5078739;28;20468;-63
2023/04/19 00:19:47;;;;;;;20.03;8.67;;;11.10;77.70;;;;;;5084331;28;20454;-63
2023/04/19 00:22:24;;;;;;;12.60;8.40;;;11.10;77.70;;;;;;5075931;28;20466;-63
2023/04/19 00:24:57;;;;;;;12.80;7.80;;;11.10;77.70;;;;;;5070146;28;20473;-63
2023/04/19 00:27:30;;;;;;;13.10;8.60;;;11.10;77.60;;;;;;5087529;28;21217;-63
2023/04/19 00:32:54;;;;;;;11.50;8.00;;;11.10;77.70;;;;;;5087011;28;20474;-64
2023/04/19 00:35:27;;;;;;;13.93;8.40;;;11.10;77.70;;;;;;5087019;28;20471;-64
2023/04/19 00:38:05;;;;;;;11.37;7.83;;;11.10;77.70;;;;;;5079150;28;20463;-64
2023/04/19 00:40:47;;;;;;;14.83;9.63;;;11.10;77.70;;;;;;5084274;28;20521;-64
2023/04/19 00:43:28;;;;;;;12.80;8.00;;;11.10;77.70;;;;;;5065023;28;20469;-64
2023/04/19 00:46:10;;;;;;;12.47;8.67;;;11.10;77.70;;;;;;5082157;28;21065;-64
2023/04/19 00:48:44;;;;;;;15.00;9.40;;;11.20;77.80;;;;;;5087092;28;21012;-64
2023/04/19 00:51:16;;;;;;;13.87;8.93;;;11.20;77.70;;;;;;5059974;28;20806;-64
2023/04/19 00:53:50;;;;;;;14.47;8.87;;;11.20;77.80;;;;;;5074991;28;20474;-64
2023/04/19 00:56:30;;;;;;;15.50;9.57;;;11.20;77.80;;;;;;5065341;28;20467;-64
2023/04/19 00:59:12;;;;;;;14.03;9.00;;;11.20;77.80;;;;;;5082911;28;20513;-64
2023/04/19 01:01:51;;;;;;;13.83;9.73;;;11.20;77.80;;;;;;5086777;28;20489;-64
2023/04/19 01:04:24;;;;;;;14.63;9.93;;;11.20;77.70;;;;;;5083265;28;20452;-64
2023/04/19 01:06:57;;;;;;;13.77;9.13;;;11.30;77.70;;;;;;5075243;28;20460;-64
2023/04/19 01:09:27;;;;;;;15.10;9.27;;;11.30;77.70;;;;;;5063080;28;20507;-64
2023/04/19 01:12:02;;;;;;;14.77;9.70;;;11.30;77.70;;;;;;5083517;28;20467;-64
2023/04/19 01:14:35;;;;;;;11.83;8.60;;;11.20;77.80;;;;;;5047448;28;20483;-64
2023/04/19 01:17:12;;;;;;;14.23;9.37;;;11.20;77.80;;;;;;5082927;28;20732;-64
2023/04/19 01:19:58;;;;;;;12.77;8.70;;;11.20;77.90;;;;;;5073996;28;20561;-64
2023/04/19 01:22:30;;;;;;;13.37;9.67;;;11.20;77.90;;;;;;5060239;28;20466;-64
2023/04/19 01:25:10;;;;;;;15.60;9.13;;;11.20;77.70;;;;;;5067506;28;20462;-64
2023/04/19 01:27:58;;;;;;;13.57;9.00;;;11.20;77.80;;;;;;5084353;28;20465;-64
2023/04/19 01:30:39;;;;;;;13.80;9.67;;;11.20;77.80;;;;;;5065641;28;20505;-64
2023/04/19 01:33:14;;;;;;;15.53;10.73;;;11.20;77.90;;;;;;5089308;28;21292;-64
2023/04/19 01:35:45;;;;;;;15.23;10.03;;;11.20;77.90;;;;;;5083619;28;21183;-64
2023/04/19 01:38:23;;;;;;;16.70;10.67;;;11.20;78.00;;;;;;5079302;28;20489;-64
2023/04/19 01:40:56;;;;;;;15.40;10.60;;;11.20;78.00;;;;;;5069127;28;20942;-64
2023/04/19 01:43:28;;;;;;;14.63;9.77;;;11.20;78.00;;;;;;5083983;28;20590;-64
2023/04/19 01:48:45;;;;;;;14.70;10.27;;;11.10;78.10;;;;;;5083700;28;20566;-64
2023/04/19 01:51:31;;;;;;;17.20;10.90;;;11.10;78.10;;;;;;5081015;28;20765;-64
2023/04/19 01:54:06;;;;;;;14.13;10.00;;;11.20;78.20;;;;;;5077873;28;20965;-64
2023/04/19 01:56:37;;;;;;;19.53;11.10;;;11.10;78.20;;;;;;5079159;28;20929;-64
2023/04/19 01:59:17;;;;;;;18.37;12.40;;;11.10;78.30;;;;;;5066610;28;20838;-64
2023/04/19 02:01:51;;;;;;;15.63;10.93;;;11.10;78.30;;;;;;5070154;28;20481;-64
2023/04/19 02:04:36;;;;;;;21.10;10.90;;;11.10;78.40;;;;;;5064097;28;20456;-64
2023/04/19 02:07:09;;;;;;;17.67;10.97;;;11.10;78.40;;;;;;5079281;28;20447;-64
2023/04/19 02:09:54;;;;;;;17.13;12.03;;;11.10;78.40;;;;;;5077086;28;20448;-64
2023/04/19 02:12:32;;;;;;;15.73;11.97;;;11.10;78.50;;;;;;5061124;28;20881;-64
2023/04/19 02:15:07;;;;;;;18.77;13.43;;;11.10;78.50;;;;;;5081991;28;20981;-64
2023/04/19 02:17:40;;;;;;;21.90;15.10;;;11.20;78.50;;;;;;5081684;28;20519;-64
2023/04/19 02:20:12;;;;;;;19.97;15.00;;;11.20;78.50;;;;;;5081072;28;20447;-64
2023/04/19 02:22:52;;;;;;;18.03;13.93;;;11.20;78.50;;;;;;5058592;28;20462;-64
2023/04/19 02:25:32;;;;;;;16.37;12.40;;;11.20;78.70;;;;;;5080196;28;20477;-64
2023/04/19 02:28:08;;;;;;;16.97;11.60;;;11.20;78.70;;;;;;5077600;28;20551;-64
2023/04/19 02:30:41;;;;;;;19.80;11.60;;;11.20;78.50;;;;;;5081191;28;20976;-64
2023/04/19 02:33:14;;;;;;;18.00;12.50;;;11.30;78.60;;;;;;5087475;28;20516;-64
2023/04/19 02:35:49;;;;;;;16.50;11.43;;;11.30;78.60;;;;;;5063509;28;22146;-64
2023/04/19 02:41:12;;;;;;;21.50;13.40;;;11.30;78.50;;;;;;5078175;28;20441;-64
2023/04/19 02:43:46;;;;;;;24.20;11.93;;;11.40;78.50;;;;;;5079725;28;20515;-64
2023/04/19 02:46:25;;;;;;;20.60;13.43;;;11.40;78.50;;;;;;5070903;28;20511;-64
2023/04/19 02:49:02;;;;;;;17.30;11.97;;;11.40;78.50;;;;;;5078405;28;21092;-64
2023/04/19 02:51:33;;;;;;;19.50;11.90;;;11.50;78.30;;;;;;5063224;28;20463;-64
2023/04/19 02:54:06;;;;;;;21.77;13.73;;;11.50;78.20;;;;;;5078996;28;20449;-64
2023/04/19 02:56:43;;;;;;;24.93;14.77;;;11.40;78.20;;;;;;5077487;28;20452;-64
2023/04/19 02:59:16;;;;;;;20.00;13.07;;;11.40;78.20;;;;;;5069438;28;20466;-64
2023/04/19 03:01:50;;;;;;;20.03;12.73;;;11.40;78.20;;;;;;5081657;28;20576;-64
2023/04/19 03:04:33;;;;;;;23.40;14.17;;;11.30;78.20;;;;;;5086270;28;20923;-64
2023/04/19 03:07:11;;;;;;;21.33;14.13;;;11.20;78.30;;;;;;5083470;28;21013;-64
2023/04/19 03:09:47;;;;;;;28.57;15.70;;;11.20;78.40;;;;;;5075644;28;20505;-65
2023/04/19 03:12:27;;;;;;;22.80;15.53;;;11.10;78.50;;;;;;5076574;28;20448;-64
2023/04/19 03:15:03;;;;;;;23.87;15.97;;;11.10;78.70;;;;;;5081568;28;20481;-64
2023/04/19 03:17:38;;;;;;;19.30;13.87;;;11.00;78.70;;;;;;5082056;28;20781;-64
2023/04/19 03:20:19;;;;;;;36.70;21.07;;;11.00;78.70;;;;;;5079936;28;20545;-64
2023/04/19 03:22:53;;;;;;;23.83;15.07;;;11.00;79.00;;;;;;5066649;28;20453;-64
2023/04/19 03:25:32;;;;;;;26.80;16.50;;;11.00;79.10;;;;;;5081633;28;20464;-64
2023/04/19 03:28:25;;;;;;;23.43;15.17;;;11.10;79.10;;;;;;5067860;28;20536;-64
2023/04/19 03:31:21;;;;;;;20.60;12.40;;;11.10;79.10;;;;;;5087143;28;20571;-64
2023/04/19 03:34:04;;;;;;;28.37;15.67;;;11.10;79.10;;;;;;5066021;28;20466;-64
2023/04/19 03:36:43;;;;;;;24.13;13.67;;;11.00;79.20;;;;;;5083154;28;20583;-64
2023/04/19 03:39:17;;;;;;;17.33;12.70;;;11.10;79.30;;;;;;5053700;28;20464;-64
2023/04/19 03:42:05;;;;;;;31.60;16.93;;;11.10;79.30;;;;;;5069445;28;20493;-64
2023/04/19 03:44:53;;;;;;;30.23;17.10;;;11.20;79.20;;;;;;5084570;28;20472;-64
2023/04/19 03:47:29;;;;;;;30.70;17.30;;;11.20;79.20;;;;;;5081809;28;20500;-64
2023/04/19 03:50:04;;;;;;;29.57;16.57;;;11.20;79.10;;;;;;5080093;28;20512;-64
2023/04/19 03:52:36;;;;;;;22.80;15.40;;;11.20;79.10;;;;;;5080003;28;20476;-64
2023/04/19 03:55:16;;;;;;;26.10;15.60;;;11.20;79.10;;;;;;5076859;28;20467;-64
2023/04/19 03:57:48;;;;;;;22.53;13.30;;;11.20;79.20;;;;;;5084158;28;20453;-64
2023/04/19 04:00:48;;;;;;;27.83;15.70;;;11.20;79.30;;;;;;5065679;28;20563;-64
2023/04/19 04:03:27;;;;;;;26.97;15.30;;;11.20;79.40;;;;;;5062280;28;20464;-64
2023/04/19 04:05:58;;;;;;;30.07;16.87;;;11.30;79.30;;;;;;5069373;28;20468;-64
2023/04/19 04:08:35;;;;;;;26.47;15.93;;;11.30;79.20;;;;;;5064491;28;20545;-64
2023/04/19 04:13:54;;;;;;;23.60;14.70;;;11.30;79.20;;;;;;5083365;28;20920;-64
2023/04/19 04:16:39;;;;;;;24.57;15.93;;;11.30;79.10;;;;;;5081797;28;20507;-64
2023/04/19 04:19:13;;;;;;;23.37;16.10;;;11.30;79.20;;;;;;5077843;28;21111;-64
2023/04/19 04:21:48;;;;;;;21.33;13.23;;;11.20;79.30;;;;;;5048756;28;20545;-64
2023/04/19 04:24:22;;;;;;;23.33;16.53;;;11.20;79.30;;;;;;5065857;28;20454;-64
2023/04/19 04:27:18;;;;;;;28.00;17.07;;;11.20;79.40;;;;;;5061741;28;20762;-64
2023/04/19 04:29:55;;;;;;;18.00;13.50;;;11.20;79.60;;;;;;5064748;28;20469;-63
2023/04/19 04:32:34;;;;;;;16.30;11.53;;;11.20;79.70;;;;;;5065330;28;20495;-63
2023/04/19 04:35:11;;;;;;;16.33;10.90;;;11.20;79.60;;;;;;5061321;28;20497;-64
2023/04/19 04:38:12;;;;;;;18.33;11.97;;;11.20;79.70;;;;;;5085775;28;20465;-63
2023/04/19 04:40:58;;;;;;;18.67;11.90;;;11.10;79.80;;;;;;5082327;28;20470;-64
2023/04/19 04:43:32;;;;;;;18.17;11.57;;;11.10;79.90;;;;;;5080278;28;20538;-63
2023/04/19 04:46:12;;;;;;;17.83;12.30;;;11.20;80.00;;;;;;5062749;28;20458;-63
2023/04/19 04:48:49;;;;;;;18.30;11.67;;;11.20;80.10;;;;;;5079979;28;20449;-65
2023/04/19 04:51:22;;;;;;;17.07;11.83;;;11.20;80.00;;;;;;5077821;28;20470;-63
2023/04/19 04:54:04;;;;;;;17.37;12.50;;;11.30;80.10;;;;;;5060522;28;20466;-65
2023/04/19 04:56:39;;;;;;;33.17;20.20;;;11.30;80.10;;;;;;5073594;28;20548;-63
2023/04/19 04:59:19;;;;;;;24.63;15.67;;;11.40;80.10;;;;;;5061915;28;21145;-63
2023/04/19 05:01:51;;;;;;;19.73;13.07;;;11.40;80.20;;;;;;5077708;28;20488;-64
2023/04/19 05:04:27;;;;;;;21.90;13.33;;;11.50;80.20;;;;;;5080759;28;20979;-64
2023/04/19 05:06:58;;;;;;;20.83;13.30;;;11.50;80.20;;;;;;5061550;28;20971;-64
2023/04/19 05:09:43;;;;;;;18.80;13.13;;;11.60;80.20;;;;;;5066095;28;20460;-64
2023/04/19 05:12:16;;;;;;;22.70;14.33;;;11.60;80.10;;;;;;5067860;28;20549;-63
2023/04/19 05:14:45;;;;;;;47.80;25.27;;;11.60;80.20;;;;;;5065857;28;20472;-65
2023/04/19 05:17:17;;;;;;;56.40;30.47;;;11.60;80.10;;;;;;5073673;28;20811;-64
2023/04/19 05:19:52;;;;;;;26.70;15.77;;;11.70;80.10;;;;;;5056823;28;20461;-64
2023/04/19 05:22:25;;;;;;;42.00;23.07;;;11.60;80.00;;;;;;5084490;28;20542;-63
2023/04/19 05:24:59;;;;;;;39.80;23.80;;;11.60;80.00;;;;;;5079990;28;20467;-63
2023/04/19 05:27:33;;;;;;;44.27;28.37;;;11.50;80.20;;;;;;5084860;28;20815;-63
2023/04/19 05:30:12;;;;;;;36.97;22.60;;;11.50;80.30;;;;;;5063900;28;20490;-63
2023/04/19 05:32:55;;;;;;;25.20;17.50;;;11.40;80.60;;;;;;5086171;28;21127;-64
2023/04/19 05:35:29;;;;;;;33.73;18.50;;;11.40;80.60;;;;;;5069600;28;20464;-63
2023/04/19 05:38:00;;;;;;;31.17;21.57;;;11.30;81.00;;;;;;5069527;28;20487;-63
2023/04/19 05:40:40;;;;;;;25.20;17.47;;;11.20;81.00;;;;;;5066067;28;20467;-63
2023/04/19 05:43:11;;;;;;;30.30;18.57;;;11.20;81.10;;;;;;5068743;28;20943;-63
2023/04/19 05:45:47;;;;;;;22.30;15.40;;;11.20;81.20;;;;;;5070233;28;20823;-63
2023/04/19 05:48:19;;;;;;;26.53;17.47;;;11.20;81.40;;;;;;5066805;28;20465;-63
2023/04/19 05:51:35;;;;;;;19.83;13.70;;;11.20;81.40;;;;;;5083939;28;20609;-63
2023/04/19 05:54:40;;;;;;;25.43;16.40;;;11.20;81.50;;;;;;5080566;28;20488;-63
2023/04/19 05:57:15;;;;;;;25.60;18.27;;;11.20;81.40;;;;;;5065113;28;20540;-63
2023/04/19 05:59:54;;;;;;;23.87;16.97;;;11.20;81.50;;;;;;5067521;28;20467;-63
2023/04/19 06:02:47;;;;;;;18.90;14.30;;;11.30;81.50;;;;;;5037806;28;21377;-63
2023/04/19 06:05:22;;;;;;;20.63;14.50;;;11.30;81.50;;;;;;5044546;28;20470;-63
2023/04/19 06:07:58;;;;;;;21.20;14.93;;;11.30;81.50;;;;;;5043309;28;20463;-63
2023/04/19 06:10:36;;;;;;;26.90;15.33;;;11.30;81.60;;;;;;5042484;28;20450;-63
2023/04/19 06:13:26;;;;;;;29.20;20.67;;;11.30;81.70;;;;;;5039335;28;20454;-63
2023/04/19 06:15:56;;;;;;;25.13;17.90;;;11.40;81.60;;;;;;5039664;28;20522;-63
2023/04/19 06:18:35;;;;;;;24.20;15.43;;;11.30;81.70;;;;;;5043256;28;20514;-64
2023/04/19 06:21:08;;;;;;;23.40;14.60;;;11.30;81.80;;;;;;5041516;28;20868;-64
2023/04/19 06:23:42;;;;;;;22.70;15.37;;;11.40;81.80;;;;;;5042092;28;20464;-63
2023/04/19 06:26:14;;;;;;;24.30;16.53;;;11.40;81.80;;;;;;5040108;28;20529;-63
2023/04/19 06:28:54;;;;;;;24.87;16.73;;;11.40;81.70;;;;;;5043766;28;20468;-63
2023/04/19 06:31:28;;;;;;;25.57;18.00;;;11.40;81.70;;;;;;5041565;28;20508;-63
2023/04/19 06:34:01;;;;;;;26.07;17.40;;;11.40;81.70;;;;;;5060478;28;20471;-63
2023/04/19 06:36:32;;;;;;;38.00;23.13;;;11.40;81.60;;;;;;5082153;28;20470;-63
2023/04/19 06:39:12;;;;;;;29.90;17.50;;;11.40;81.50;;;;;;5082917;28;20475;-63
2023/04/19 06:41:47;;;;;;;25.70;16.70;;;11.40;81.50;;;;;;5080110;28;20460;-63
2023/04/19 06:44:21;;;;;;;21.07;15.27;;;11.40;81.50;;;;;;5078748;28;20481;-63
2023/04/19 06:46:53;;;;;;;21.27;15.70;;;11.40;81.50;;;;;;5077117;28;20461;-63
2023/04/19 06:49:31;;;;;;;25.70;16.00;;;11.40;81.40;;;;;;5082698;28;20458;-63
2023/04/19 06:52:02;;;;;;;22.17;15.40;;;11.40;81.40;;;;;;5081910;28;20850;-63
2023/04/19 06:54:41;;;;;;;25.10;16.90;;;11.50;81.30;;;;;;5080778;28;20462;-63
2023/04/19 06:57:18;;;;;;;21.57;16.30;;;11.50;81.00;;;;;;5080272;28;20517;-63
2023/04/19 06:59:57;;;;;;;21.00;14.70;;;11.50;81.10;;;;;;5079832;28;20459;-63
2023/04/19 07:02:31;;;;;;;22.00;15.77;;;11.50;81.00;;;;;;5078456;28;20585;-63
2023/04/19 07:05:11;;;;;;;28.70;18.67;;;11.50;80.90;;;;;;5077650;28;20452;-63
2023/04/19 07:07:51;;;;;;;23.97;16.77;;;11.60;80.90;;;;;;5077734;28;20471;-63
2023/04/19 07:10:42;;;;;;;25.03;17.20;;;11.60;80.80;;;;;;5081076;28;20782;-63
2023/04/19 07:13:13;;;;;;;34.03;22.60;;;11.60;80.70;;;;;;5075611;28;20463;-63
2023/04/19 07:15:42;;;;;;;26.83;18.50;;;11.60;80.60;;;;;;5079097;28;20457;-63
2023/04/19 07:18:21;;;;;;;24.77;16.90;;;11.60;80.60;;;;;;5070398;28;20974;-63
2023/04/19 07:21:01;;;;;;;22.17;16.63;;;11.50;80.50;;;;;;5080042;28;20549;-63
2023/04/19 07:23:32;;;;;;;24.60;17.07;;;11.60;80.40;;;;;;5079398;28;20860;-63
2023/04/19 07:26:13;;;;;;;28.37;15.60;;;11.50;80.30;;;;;;5077294;28;20457;-63
2023/04/19 07:28:52;;;;;;;22.67;16.60;;;11.60;80.30;;;;;;5076714;28;20452;-63
2023/04/19 07:31:23;;;;;;;25.63;16.40;;;11.50;80.30;;;;;;5076530;28;20495;-63
2023/04/19 07:33:52;;;;;;;25.60;15.10;;;11.50;80.20;;;;;;5078185;28;20495;-63
2023/04/19 07:36:40;;;;;;;20.50;15.90;;;11.50;80.20;;;;;;5081256;28;20456;-64
2023/04/19 07:39:12;;;;;;;22.83;15.03;;;11.60;80.10;;;;;;5078664;28;21210;-63
2023/04/19 07:41:46;;;;;;;25.93;17.97;;;11.60;80.10;;;;;;5079133;28;20458;-63
2023/04/19 07:44:18;;;;;;;22.63;15.00;;;11.60;80.10;;;;;;5079379;28;20462;-63
2023/04/19 07:46:52;;;;;;;22.73;14.63;;;11.70;80.10;;;;;;5078890;28;21215;-64
2023/04/19 07:49:25;;;;;;;18.47;13.47;;;11.60;80.00;;;;;;5079033;28;20986;-63
2023/04/19 07:51:59;;;;;;;20.93;13.67;;;11.70;79.90;;;;;;5079109;28;20656;-63
2023/04/19 07:54:29;;;;;;;20.13;14.50;;;11.70;79.90;;;;;;5077138;28;20487;-63
2023/04/19 07:57:04;;;;;;;21.83;14.50;;;11.80;79.80;;;;;;5080384;28;20514;-63
2023/04/19 07:59:41;;;;;;;23.23;13.63;;;11.80;79.70;;;;;;5078815;28;21708;-63
2023/04/19 08:02:21;;;;;;;19.17;13.43;;;11.70;79.70;;;;;;5077144;28;20531;-63
2023/04/19 08:04:56;;;;;;;20.83;13.53;;;11.80;79.60;;;;;;5078560;28;21141;-63
2023/04/19 08:07:29;;;;;;;18.60;13.50;;;11.80;79.40;;;;;;5077696;28;20457;-63
2023/04/19 08:10:12;;;;;;;24.47;16.00;;;11.80;79.40;;;;;;5081508;28;20462;-63
2023/04/19 08:12:42;;;;;;;19.23;11.70;;;11.80;79.30;;;;;;5080055;28;20586;-63
2023/04/19 08:15:41;;;;;;;18.23;11.70;;;11.90;79.00;;;;;;5074718;28;20463;-63
2023/04/19 08:18:13;;;;;;;18.30;10.33;;;11.80;78.80;;;;;;5079312;28;20485;-63
2023/04/19 08:20:55;;;;;;;17.23;11.30;;;11.80;78.60;;;;;;5077768;28;20448;-63
2023/04/19 08:23:35;;;;;;;14.50;11.03;;;11.80;78.60;;;;;;5079495;28;20457;-63
2023/04/19 08:26:18;;;;;;;21.30;10.50;;;11.90;78.40;;;;;;5079396;28;20453;-64
2023/04/19 08:29:05;;;;;;;14.87;10.20;;;11.90;78.40;;;;;;5077671;28;20449;-63
2023/04/19 08:31:46;;;;;;;15.17;10.70;;;11.90;78.00;;;;;;5080754;28;20486;-65
2023/04/19 08:34:24;;;;;;;16.10;9.63;;;11.90;77.90;;;;;;5077805;28;20472;-64
2023/04/19 08:36:58;;;;;;;12.77;8.93;;;11.90;77.70;;;;;;5080101;28;20937;-64
2023/04/19 08:39:33;;;;;;;13.40;9.73;;;11.80;77.20;;;;;;5079724;28;20460;-64
2023/04/19 08:42:11;;;;;;;14.50;9.20;;;11.80;77.00;;;;;;5082016;28;20507;-64
2023/04/19 08:45:12;;;;;;;22.27;12.70;;;11.70;76.80;;;;;;5078272;28;20554;-64
2023/04/19 08:48:01;;;;;;;15.33;10.43;;;11.70;76.70;;;;;;5084691;28;20467;-64
2023/04/19 08:50:35;;;;;;;13.83;10.10;;;11.70;76.50;;;;;;5083392;28;20518;-64
2023/04/19 08:53:30;;;;;;;14.50;11.10;;;11.70;76.40;;;;;;5081238;28;20920;-65
2023/04/19 08:55:59;;;;;;;13.07;8.30;;;11.70;76.20;;;;;;5084620;28;20463;-64
2023/04/19 08:58:41;;;;;;;13.17;9.40;;;11.70;76.00;;;;;;5082541;28;20804;-64
2023/04/19 09:01:44;;;;;;;11.37;8.43;;;11.70;75.90;;;;;;5080117;28;20543;-64
2023/04/19 09:04:15;;;;;;;15.00;8.30;;;11.70;75.80;;;;;;5083494;28;20936;-64
2023/04/19 09:07:07;;;;;;;14.83;8.33;;;11.80;75.70;;;;;;5081953;28;20471;-64
2023/04/19 09:09:41;;;;;;;13.50;7.90;;;11.80;75.50;;;;;;5084629;28;20471;-64
2023/04/19 09:12:40;;;;;;;12.43;7.50;;;11.90;75.40;;;;;;5079239;28;20639;-64
2023/04/19 09:15:13;;;;;;;11.63;7.50;;;11.80;75.00;;;;;;5081839;28;20452;-64
2023/04/19 09:18:08;;;;;;;14.00;8.47;;;11.90;75.00;;;;;;5081426;28;21041;-64
2023/04/19 09:20:40;;;;;;;13.50;8.10;;;11.90;75.00;;;;;;5080465;28;21076;-64
2023/04/19 09:23:28;;;;;;;14.20;7.60;;;11.90;75.00;;;;;;5080463;28;20563;-63
2023/04/19 09:26:03;;;;;;;11.43;7.50;;;12.00;75.10;;;;;;5078986;28;20474;-66
2023/04/19 09:29:03;;;;;;;10.10;6.33;;;12.10;75.00;;;;;;5083383;28;20449;-64
2023/04/19 09:31:40;;;;;;;11.67;7.50;;;12.10;74.70;;;;;;5080597;28;20477;-65
2023/04/19 09:34:29;;;;;;;13.30;7.83;;;12.20;74.60;;;;;;5083763;28;20463;-64
2023/04/19 09:37:15;;;;;;;20.40;7.13;;;12.30;74.60;;;;;;5077711;28;21004;-64
2023/04/19 09:40:25;;;;;;;9.50;6.27;;;12.40;74.30;;;;;;5080248;28;20459;-64
2023/04/19 09:42:58;;;;;;;13.17;7.50;;;12.50;74.10;;;;;;5081499;28;20552;-64
2023/04/19 09:45:49;;;;;;;11.07;6.83;;;12.50;74.10;;;;;;5084417;28;20457;-64
2023/04/19 09:48:20;;;;;;;9.37;6.70;;;12.50;74.00;;;;;;5080479;28;20481;-64
2023/04/19 09:51:05;;;;;;;9.80;6.80;;;12.60;73.70;;;;;;5083954;28;20461;-64
2023/04/19 09:53:44;;;;;;;12.50;7.13;;;12.50;73.20;;;;;;5081798;28;20448;-64
2023/04/19 09:56:15;;;;;;;9.60;5.90;;;12.60;73.30;;;;;;5081287;28;20532;-64
2023/04/19 09:58:47;;;;;;;9.63;5.63;;;12.50;73.10;;;;;;5065667;28;20483;-64
2023/04/19 10:01:27;;;;;;;10.40;5.90;;;12.50;72.80;;;;;;5082889;28;20533;-64
2023/04/19 10:04:05;;;;;;;10.33;6.33;;;12.50;72.50;;;;;;5082516;28;20461;-64
2023/04/19 10:07:06;;;;;;;10.43;6.60;;;12.60;72.40;;;;;;5081633;28;20473;-64
2023/04/19 10:09:42;;;;;;;11.53;7.17;;;12.60;72.10;;;;;;5082449;28;20468;-64
2023/04/19 10:12:31;;;;;;;9.90;5.97;;;12.50;71.90;;;;;;5078540;28;20455;-64
2023/04/19 10:15:29;;;;;;;9.87;6.70;;;12.50;71.80;;;;;;5081409;28;20500;-64
2023/04/19 10:18:19;;;;;;;15.37;7.27;;;12.50;71.00;;;;;;5082750;28;20475;-64
2023/04/19 10:20:58;;;;;;;11.43;7.10;;;12.40;71.00;;;;;;5080539;28;20818;-66
2023/04/19 10:23:44;;;;;;;13.97;8.00;;;12.40;70.90;;;;;;5081156;28;20934;-64
2023/04/19 10:26:15;;;;;;;9.53;6.30;;;12.40;70.80;;;;;;5076972;28;21005;-63
2023/04/19 10:28:56;;;;;;;9.53;6.23;;;12.40;70.70;;;;;;5084928;28;20464;-62
2023/04/19 10:31:30;;;;;;;10.73;6.43;;;12.40;70.70;;;;;;5083260;28;20504;-63
2023/04/19 10:34:04;;;;;;;9.43;6.17;;;12.50;70.60;;;;;;5080576;28;20449;-63
2023/04/19 10:36:37;;;;;;;11.10;6.20;;;12.60;70.20;;;;;;5085132;28;20459;-63
2023/04/19 10:39:39;;;;;;;13.20;6.83;;;12.50;70.20;;;;;;5079957;28;20964;-64
2023/04/19 10:42:10;;;;;;;8.83;6.07;;;12.50;69.70;;;;;;5081162;28;20457;-64
2023/04/19 10:44:48;;;;;;;9.20;6.10;;;12.60;70.10;;;;;;5080788;28;20487;-63
2023/04/19 10:47:43;;;;;;;9.87;6.10;;;12.50;69.90;;;;;;5078352;28;20444;-64
2023/04/19 10:50:17;;;;;;;8.43;5.50;;;12.70;69.80;;;;;;5065975;28;20530;-64
2023/04/19 10:52:57;;;;;;;8.70;6.10;;;12.70;69.30;;;;;;5079438;28;20456;-63
2023/04/19 10:55:34;;;;;;;9.70;6.23;;;12.70;69.30;;;;;;5081804;28;20483;-63
2023/04/19 10:58:07;;;;;;;11.17;6.63;;;12.70;69.40;;;;;;5080936;28;20463;-63
2023/04/19 11:00:41;;;;;;;11.43;5.93;;;12.80;69.40;;;;;;5081680;28;20470;-63
2023/04/19 11:03:54;;;;;;;13.63;7.00;;;12.90;69.60;;;;;;5081294;28;20797;-63
2023/04/19 11:06:27;;;;;;;10.53;6.33;;;13.00;69.10;;;;;;5078828;28;20449;-63
2023/04/19 11:09:04;;;;;;;11.53;6.13;;;13.10;69.10;;;;;;5081611;28;20551;-63
2023/04/19 11:11:41;;;;;;;11.67;6.77;;;13.20;68.80;;;;;;5082187;28;20463;-63
2023/04/19 11:14:24;;;;;;;8.57;5.90;;;13.20;67.60;;;;;;5084012;28;20469;-63
2023/04/19 11:16:58;;;;;;;14.27;6.40;;;13.10;66.80;;;;;;5084635;28;20495;-63
2023/04/19 11:19:39;;;;;;;12.13;7.20;;;13.10;66.70;;;;;;5065519;28;20475;-63
2023/04/19 11:22:17;;;;;;;12.80;7.70;;;13.10;66.70;;;;;;5080280;28;20456;-63
2023/04/19 11:24:56;;;;;;;10.40;6.27;;;13.10;65.90;;;;;;5083391;28;20463;-63
2023/04/19 11:27:29;;;;;;;15.30;7.40;;;13.20;65.80;;;;;;5082090;28;20459;-63
2023/04/19 11:30:04;;;;;;;10.70;6.30;;;13.10;65.40;;;;;;5079984;28;20453;-63
2023/04/19 11:32:36;;;;;;;14.00;7.60;;;13.20;65.40;;;;;;5065802;28;20532;-63
2023/04/19 11:35:15;;;;;;;12.37;7.07;;;13.20;65.00;;;;;;5065669;28;20487;-63
2023/04/19 11:37:49;;;;;;;13.93;8.20;;;13.20;65.00;;;;;;5080831;28;20447;-63
2023/04/19 11:40:24;;;;;;;17.93;10.57;;;13.20;64.20;;;;;;5080913;28;20524;-63
2023/04/19 11:43:04;;;;;;;15.80;9.03;;;13.10;64.60;;;;;;5081573;28;20469;-63
2023/04/19 11:45:39;;;;;;;11.30;7.80;;;13.20;64.70;;;;;;5059836;28;20449;-63
2023/04/19 11:48:17;;;;;;;15.43;8.70;;;13.30;64.90;;;;;;5080588;28;20483;-63
2023/04/19 11:50:50;;;;;;;12.90;7.70;;;13.40;64.70;;;;;;5080352;28;20472;-63
2023/04/19 11:53:27;;;;;;;11.87;6.50;;;13.50;64.50;;;;;;5078165;28;20491;-63
2023/04/19 11:56:10;;;;;;;9.30;5.50;;;13.50;63.90;;;;;;5086030;28;20466;-63
2023/04/19 11:58:50;;;;;;;10.23;5.70;;;13.60;63.70;;;;;;5080875;28;20453;-63
2023/04/19 12:01:31;;;;;;;9.10;5.40;;;13.60;62.40;;;;;;5080359;28;20538;-64
2023/04/19 12:04:12;;;;;;;9.90;5.00;;;13.60;62.90;;;;;;5081804;28;20920;-63
2023/04/19 12:06:53;;;;;;;8.37;5.10;;;13.70;62.50;;;;;;5079048;28;20462;-63
2023/04/19 12:09:24;;;;;;;10.90;4.83;;;13.70;61.80;;;;;;5078841;28;20460;-63
2023/04/19 12:12:03;;;;;;;10.13;5.00;;;13.60;61.30;;;;;;5080398;28;20516;-63
2023/04/19 12:14:45;;;;;;;8.50;4.50;;;13.60;60.80;;;;;;5079523;28;20457;-63
2023/04/19 12:17:23;;;;;;;7.57;4.43;;;13.60;59.80;;;;;;5076908;28;20462;-63
2023/04/19 12:20:02;;;;;;;12.37;6.83;;;13.60;59.80;;;;;;5079610;28;20476;-64
2023/04/19 12:22:35;;;;;;;28.07;11.03;;;13.60;60.00;;;;;;5081441;28;20477;-64
2023/04/19 12:25:16;;;;;;;16.40;8.27;;;13.60;59.80;;;;;;5085486;28;20485;-64
2023/04/19 12:27:56;;;;;;;9.50;4.20;;;13.70;59.60;;;;;;5085213;28;20973;-64
2023/04/19 12:30:29;;;;;;;7.40;4.23;;;13.80;59.20;;;;;;5084789;28;20955;-64
2023/04/19 12:33:07;;;;;;;7.80;4.20;;;13.90;58.90;;;;;;5088866;28;20524;-64
2023/04/19 12:35:53;;;;;;;8.20;4.10;;;13.90;58.30;;;;;;5083521;28;20466;-64
2023/04/19 12:38:25;;;;;;;6.53;3.00;;;13.90;57.30;;;;;;5085394;28;20904;-64
2023/04/19 12:40:58;;;;;;;8.70;3.60;;;13.90;57.10;;;;;;5084279;28;21559;-64
2023/04/19 12:43:31;;;;;;;9.43;5.43;;;13.90;57.00;;;;;;5084327;28;20462;-62
2023/04/19 12:46:05;;;;;;;11.53;6.27;;;13.90;56.50;;;;;;5080553;28;20464;-62
2023/04/19 12:48:43;;;;;;;8.40;4.27;;;14.00;56.10;;;;;;5083501;28;20992;-62
2023/04/19 12:51:16;;;;;;;5.20;2.53;;;14.00;56.20;;;;;;5092233;28;20540;-62
2023/04/19 12:53:52;;;;;;;7.57;3.67;;;14.10;55.60;;;;;;5083174;28;20458;-63
2023/04/19 12:56:21;;;;;;;5.27;2.50;;;14.10;54.70;;;;;;5081981;28;20455;-63
2023/04/19 12:58:53;;;;;;;9.00;3.90;;;14.10;54.60;;;;;;5082591;28;20968;-63
2023/04/19 13:01:23;;;;;;;5.70;2.80;;;14.00;54.10;;;;;;5083727;28;21178;-63
2023/04/19 13:04:01;;;;;;;8.20;4.37;;;14.10;53.60;;;;;;5085318;28;20925;-63
2023/04/19 13:06:41;;;;;;;8.00;3.70;;;14.10;53.90;;;;;;5087757;28;20959;-63
2023/04/19 13:09:09;;;;;;;5.90;3.00;;;14.20;53.50;;;;;;5081841;28;20936;-63
2023/04/19 13:11:42;;;;;;;5.50;2.70;;;14.20;52.80;;;;;;5081607;28;20474;-64
2023/04/19 13:14:16;;;;;;;12.00;3.80;;;14.10;52.80;;;;;;5083843;28;20536;-63
2023/04/19 13:17:01;;;;;;;5.53;2.43;;;14.00;53.00;;;;;;5081116;28;20523;-63
2023/04/19 13:19:37;;;;;;;8.40;3.97;;;14.20;53.00;;;;;;5083889;28;20965;-63
2023/04/19 13:22:08;;;;;;;9.03;4.07;;;14.10;52.90;;;;;;5084091;28;20555;-63
2023/04/19 13:24:41;;;;;;;10.50;4.73;;;14.20;52.50;;;;;;5082860;28;20473;-63
2023/04/19 13:27:21;;;;;;;4.83;2.10;;;14.20;52.30;;;;;;5081436;28;20471;-63
2023/04/19 13:29:55;;;;;;;6.90;3.20;;;14.20;52.30;;;;;;5083439;28;20499;-63
2023/04/19 13:32:29;;;;;;;7.00;3.17;;;14.20;52.20;;;;;;5062481;28;20482;-63
2023/04/19 13:35:09;;;;;;;6.00;2.07;;;14.10;51.80;;;;;;5082504;28;20457;-63
2023/04/19 13:37:43;;;;;;;6.40;3.10;;;14.10;50.30;;;;;;5081793;28;20464;-63
2023/04/19 13:40:16;;;;;;;5.57;3.00;;;14.10;50.60;;;;;;5084375;28;20482;-63